Time;durP1;ratioP1;P1;durP2;ratioP2;P2;SDS_P1;SDS_P2;PMS_P1;PMS_P2;Temp;Humidity;BMP_temperature;BMP_pressure;BME280_temperature;BME280_humidity;BME280_pressure;Samples;Min_cycle;Max_cycle;Signal;HPM_P1;HPM_P2
2023/06/21 00:01:00;;;;;;;10.00;8.50;;;22.30;99.90;;;;;;5021334;28;20232;-81
2023/06/21 00:03:27;;;;;;;11.85;8.38;;;22.20;99.90;;;;;;5019023;28;20549;-81
2023/06/21 00:05:55;;;;;;;9.80;8.82;;;21.80;99.90;;;;;;5017955;28;20232;-80
2023/06/21 00:08:22;;;;;;;8.77;7.93;;;21.50;99.90;;;;;;5011265;28;20600;-81
2023/06/21 00:10:50;;;;;;;8.70;7.90;;;21.40;99.90;;;;;;5051375;28;20208;-81
2023/06/21 00:13:18;;;;;;;8.80;7.90;;;21.50;99.90;;;;;;5036799;28;20204;-81
2023/06/21 00:15:46;;;;;;;8.32;7.53;;;21.80;99.90;;;;;;5024998;28;20207;-80
2023/06/21 00:18:14;;;;;;;9.30;8.30;;;21.30;99.90;;;;;;5023036;28;20204;-81
2023/06/21 00:20:41;;;;;;;8.80;8.00;;;21.30;99.90;;;;;;5012417;28;20218;-81
2023/06/21 00:23:09;;;;;;;9.60;8.63;;;21.30;99.90;;;;;;5013564;28;20580;-81
2023/06/21 00:25:36;;;;;;;8.48;7.68;;;21.40;99.90;;;;;;5013781;28;20196;-81
2023/06/21 00:28:04;;;;;;;7.63;6.88;;;21.70;99.90;;;;;;5020331;28;20199;-81
2023/06/21 00:30:31;;;;;;;7.88;7.07;;;21.80;99.90;;;;;;5014228;28;20202;-80
2023/06/21 00:33:02;;;;;;;7.57;6.88;;;21.70;99.90;;;;;;5039462;28;20212;-81
2023/06/21 00:35:29;;;;;;;7.25;6.55;;;21.50;99.90;;;;;;5012314;28;20204;-81
2023/06/21 00:37:57;;;;;;;7.85;6.85;;;21.50;99.90;;;;;;5012725;28;20196;-81
2023/06/21 00:40:26;;;;;;;6.38;5.78;;;21.40;99.90;;;;;;5016733;28;20578;-81
2023/06/21 00:42:54;;;;;;;6.85;6.25;;;21.40;99.90;;;;;;5008023;28;20204;-81
2023/06/21 00:45:22;;;;;;;6.95;6.35;;;21.20;99.90;;;;;;5009014;28;20654;-81
2023/06/21 00:47:50;;;;;;;6.47;5.88;;;21.20;99.90;;;;;;5015887;28;20229;-81
2023/06/21 00:50:20;;;;;;;6.15;5.55;;;21.20;99.90;;;;;;5011190;28;20199;-80
2023/06/21 00:52:49;;;;;;;7.00;4.90;;;21.30;99.90;;;;;;5014903;28;20686;-81
2023/06/21 00:55:19;;;;;;;6.30;5.65;;;22.00;99.90;;;;;;5015141;28;20559;-80
2023/06/21 00:57:47;;;;;;;6.35;5.60;;;21.60;99.90;;;;;;5042758;28;20222;-80
2023/06/21 01:00:20;;;;;;;5.43;4.93;;;21.30;99.90;;;;;;5013425;28;20208;-81
2023/06/21 01:02:47;;;;;;;7.15;5.57;;;21.30;99.90;;;;;;5010101;28;20196;-81
2023/06/21 01:05:16;;;;;;;5.43;4.53;;;21.30;99.90;;;;;;5004909;28;20210;-81
2023/06/21 01:08:00;;;;;;;5.53;5.03;;;21.30;99.90;;;;;;5009938;28;20228;-81
2023/06/21 01:10:39;;;;;;;4.90;4.50;;;21.10;99.90;;;;;;5006070;28;20203;-81
2023/06/21 01:13:22;;;;;;;6.45;5.10;;;20.90;99.90;;;;;;5041239;28;20195;-80
2023/06/21 01:15:58;;;;;;;5.22;4.72;;;21.10;99.90;;;;;;5031500;28;20724;-81
2023/06/21 01:18:27;;;;;;;5.07;4.57;;;21.00;99.90;;;;;;5021712;28;20192;-81
2023/06/21 01:20:57;;;;;;;5.78;5.18;;;20.60;99.90;;;;;;5012505;28;20235;-81
2023/06/21 01:23:40;;;;;;;4.88;4.40;;;20.70;99.90;;;;;;5011393;28;20200;-81
2023/06/21 01:26:13;;;;;;;4.53;4.05;;;20.70;99.90;;;;;;5036047;28;20230;-81
2023/06/21 01:28:50;;;;;;;6.13;4.78;;;21.00;99.90;;;;;;5011692;28;20210;-81
2023/06/21 01:31:20;;;;;;;4.97;4.10;;;21.20;99.90;;;;;;5048998;28;20199;-82
2023/06/21 01:33:51;;;;;;;5.88;5.15;;;21.20;99.90;;;;;;5006447;28;20204;-81
2023/06/21 01:36:19;;;;;;;5.07;4.68;;;21.20;99.90;;;;;;5030164;28;20216;-81
2023/06/21 01:38:47;;;;;;;5.25;4.65;;;21.20;99.90;;;;;;5007077;28;20204;-81
2023/06/21 01:41:14;;;;;;;6.18;5.28;;;21.10;99.90;;;;;;5043478;28;20219;-81
2023/06/21 01:43:42;;;;;;;5.80;5.25;;;20.90;99.90;;;;;;5040021;28;20207;-81
2023/06/21 01:46:11;;;;;;;5.25;4.75;;;20.80;99.90;;;;;;5011102;28;20231;-79
2023/06/21 01:48:42;;;;;;;7.07;5.10;;;20.90;99.90;;;;;;5009434;28;20196;-81
2023/06/21 01:51:12;;;;;;;6.32;5.60;;;20.50;99.90;;;;;;5028093;28;20218;-80
2023/06/21 01:53:41;;;;;;;5.88;5.30;;;20.50;99.90;;;;;;5022580;28;20669;-82
2023/06/21 01:56:12;;;;;;;5.70;4.90;;;20.70;99.90;;;;;;5005127;28;20239;-81
2023/06/21 01:58:41;;;;;;;6.03;5.53;;;21.00;99.90;;;;;;5042568;28;20200;-81
2023/06/21 02:01:11;;;;;;;6.70;4.55;;;20.90;99.90;;;;;;5012409;28;20714;-81
2023/06/21 02:03:44;;;;;;;7.35;5.13;;;21.20;99.90;;;;;;5011693;28;20203;-81
2023/06/21 02:06:13;;;;;;;5.35;4.82;;;20.60;99.90;;;;;;5011819;28;20219;-81
2023/06/21 02:08:42;;;;;;;6.25;5.63;;;20.60;99.90;;;;;;5039827;28;20203;-81
2023/06/21 02:11:10;;;;;;;6.68;5.82;;;20.40;99.90;;;;;;5020753;23;20228;-79
2023/06/21 02:13:37;;;;;;;8.25;5.38;;;20.30;99.90;;;;;;4993740;28;20203;-79
2023/06/21 02:16:05;;;;;;;7.00;6.18;;;20.50;99.90;;;;;;4992854;28;20201;-79
2023/06/21 02:18:32;;;;;;;6.13;5.53;;;20.50;99.90;;;;;;4984672;28;20211;-79
2023/06/21 02:21:02;;;;;;;5.78;5.28;;;20.70;99.90;;;;;;4985543;28;20223;-79
2023/06/21 02:23:30;;;;;;;5.40;4.65;;;20.50;99.90;;;;;;4990194;28;20193;-79
2023/06/21 02:25:57;;;;;;;5.72;5.20;;;21.00;99.90;;;;;;4990498;28;20192;-78
2023/06/21 02:28:25;;;;;;;5.93;5.28;;;21.10;99.90;;;;;;5008747;28;20200;-79
2023/06/21 02:30:52;;;;;;;5.88;5.28;;;20.60;99.90;;;;;;4992529;28;20221;-79
2023/06/21 02:33:19;;;;;;;6.05;5.15;;;20.80;99.90;;;;;;4992179;28;20575;-79
2023/06/21 02:35:47;;;;;;;4.78;4.32;;;20.50;99.90;;;;;;4991185;28;20212;-79
2023/06/21 02:38:25;;;;;;;5.78;5.15;;;20.60;99.90;;;;;;4985745;28;20212;-79
2023/06/21 02:40:53;;;;;;;5.22;4.75;;;20.80;99.90;;;;;;4995005;28;20231;-79
2023/06/21 02:43:20;;;;;;;5.88;4.88;;;20.80;99.90;;;;;;4988621;28;20216;-79
2023/06/21 02:45:48;;;;;;;6.00;5.18;;;20.70;99.90;;;;;;4991817;28;20226;-79
2023/06/21 02:48:15;;;;;;;6.78;5.75;;;20.40;99.90;;;;;;4992668;28;20212;-79
2023/06/21 02:50:43;;;;;;;6.38;5.72;;;20.50;99.90;;;;;;4988997;28;20220;-79
2023/06/21 02:53:10;;;;;;;6.80;5.93;;;20.40;99.90;;;;;;4990071;28;20524;-79
2023/06/21 02:55:40;;;;;;;6.80;5.93;;;20.40;99.90;;;;;;4987605;28;20220;-79
2023/06/21 02:58:08;;;;;;;7.35;6.65;;;20.40;99.90;;;;;;4993200;28;20203;-79
2023/06/21 03:00:40;;;;;;;6.57;5.78;;;20.40;99.90;;;;;;4992393;28;20223;-78
2023/06/21 03:03:08;;;;;;;6.30;5.50;;;20.70;99.90;;;;;;4981922;28;20216;-79
2023/06/21 03:05:37;;;;;;;7.80;5.28;;;20.70;99.90;;;;;;4985704;28;20200;-80
2023/06/21 03:08:07;;;;;;;8.65;5.82;;;21.10;99.90;;;;;;4993928;28;20211;-80
2023/06/21 03:10:36;;;;;;;6.03;5.35;;;21.40;99.90;;;;;;4992031;28;20230;-78
2023/06/21 03:13:07;;;;;;;6.68;5.97;;;21.10;99.90;;;;;;4993583;28;20197;-78
2023/06/21 03:15:34;;;;;;;6.95;5.32;;;20.90;99.90;;;;;;4989021;28;20204;-78
2023/06/21 03:18:01;;;;;;;6.88;6.18;;;20.50;99.90;;;;;;4991673;28;20197;-78
2023/06/21 03:20:29;;;;;;;6.82;6.18;;;20.40;99.90;;;;;;4987610;28;20224;-78
2023/06/21 03:23:00;;;;;;;6.50;5.85;;;20.40;99.90;;;;;;4982382;28;20220;-78
2023/06/21 03:25:37;;;;;;;8.18;5.93;;;20.40;99.90;;;;;;4987078;28;20228;-79
2023/06/21 03:28:06;;;;;;;6.70;5.60;;;20.30;99.90;;;;;;4987562;28;20223;-77
2023/06/21 03:30:33;;;;;;;7.80;6.65;;;20.30;99.90;;;;;;4986119;28;20232;-78
2023/06/21 03:33:03;;;;;;;7.85;7.05;;;20.30;99.90;;;;;;4987356;28;20201;-77
2023/06/21 03:35:33;;;;;;;8.27;7.13;;;20.10;99.90;;;;;;4987004;28;20196;-77
2023/06/21 03:38:01;;;;;;;7.72;7.00;;;20.20;99.90;;;;;;5002189;28;20211;-78
2023/06/21 03:40:35;;;;;;;7.68;6.88;;;20.30;99.90;;;;;;4979253;28;20209;-77
2023/06/21 03:43:06;;;;;;;7.32;5.93;;;20.40;99.90;;;;;;4984456;28;20212;-78
2023/06/21 03:45:35;;;;;;;7.35;5.50;;;20.50;99.90;;;;;;4987098;28;20196;-77
2023/06/21 03:48:05;;;;;;;6.13;5.53;;;20.60;99.90;;;;;;4986656;28;20733;-78
2023/06/21 03:50:34;;;;;;;6.90;5.82;;;20.80;99.90;;;;;;4987717;28;20583;-78
2023/06/21 03:53:03;;;;;;;6.80;5.82;;;20.80;99.90;;;;;;4983736;28;20188;-78
2023/06/21 03:55:31;;;;;;;6.82;6.13;;;21.00;99.90;;;;;;4984088;28;20208;-77
2023/06/21 03:57:58;;;;;;;7.43;6.70;;;20.70;99.90;;;;;;4986448;28;20192;-78
2023/06/21 04:00:27;;;;;;;6.72;6.03;;;20.40;99.90;;;;;;4987519;28;20801;-78
2023/06/21 04:02:56;;;;;;;7.38;6.15;;;20.40;99.90;;;;;;4999467;28;20228;-78
2023/06/21 04:05:23;;;;;;;6.80;5.57;;;20.50;99.90;;;;;;4968964;28;20224;-78
2023/06/21 04:07:51;;;;;;;6.60;5.90;;;20.70;99.90;;;;;;4977652;28;20205;-78
2023/06/21 04:10:18;;;;;;;7.05;6.30;;;20.80;99.90;;;;;;4982203;28;20717;-78
2023/06/21 04:12:46;;;;;;;7.97;6.75;;;20.70;99.90;;;;;;4983244;28;20189;-78
2023/06/21 04:15:15;;;;;;;7.38;6.28;;;20.60;99.90;;;;;;4988307;28;20196;-78
2023/06/21 04:17:44;;;;;;;6.88;6.07;;;20.40;99.90;;;;;;4986321;28;20204;-78
2023/06/21 04:20:15;;;;;;;9.15;6.97;;;21.00;99.90;;;;;;4983804;28;20220;-78
2023/06/21 04:22:44;;;;;;;7.53;6.75;;;20.60;99.90;;;;;;4996075;28;20224;-78
2023/06/21 04:25:12;;;;;;;6.93;6.28;;;20.70;99.90;;;;;;4981800;28;20563;-78
2023/06/21 04:27:41;;;;;;;6.65;5.88;;;21.00;99.90;;;;;;4986858;28;20200;-78
2023/06/21 04:30:10;;;;;;;7.40;6.50;;;21.00;99.90;;;;;;4985393;28;20220;-78
2023/06/21 04:32:44;;;;;;;6.90;6.22;;;21.00;99.90;;;;;;4982005;28;20204;-78
2023/06/21 04:35:15;;;;;;;8.88;6.53;;;21.00;99.90;;;;;;4984834;28;20220;-79
2023/06/21 04:37:44;;;;;;;9.15;7.20;;;21.00;99.90;;;;;;4988593;28;20204;-79
2023/06/21 04:40:15;;;;;;;7.22;5.97;;;21.10;99.90;;;;;;4986906;28;20224;-79
2023/06/21 04:42:43;;;;;;;7.75;6.88;;;21.10;99.90;;;;;;4980902;28;20592;-79
2023/06/21 04:45:14;;;;;;;7.05;6.28;;;21.00;99.90;;;;;;4998963;28;20216;-78
2023/06/21 04:47:42;;;;;;;6.30;5.70;;;21.40;99.90;;;;;;4989159;28;20196;-78
2023/06/21 04:50:11;;;;;;;9.07;6.88;;;21.50;99.90;;;;;;4983946;28;20220;-78
2023/06/21 04:52:40;;;;;;;7.55;6.32;;;21.50;99.90;;;;;;4985448;28;20204;-77
2023/06/21 04:55:09;;;;;;;8.23;6.93;;;21.00;99.90;;;;;;4987986;28;20200;-77
2023/06/21 04:57:37;;;;;;;8.65;7.50;;;21.00;99.90;;;;;;4991042;28;20193;-77
2023/06/21 05:00:07;;;;;;;8.73;7.30;;;21.00;99.90;;;;;;4989037;28;20234;-77
2023/06/21 05:02:34;;;;;;;7.70;6.78;;;21.10;99.90;;;;;;4989474;28;20693;-77
2023/06/21 05:05:02;;;;;;;8.35;7.50;;;21.00;99.90;;;;;;4986522;28;20205;-79
2023/06/21 05:07:29;;;;;;;7.20;6.50;;;20.80;99.90;;;;;;4982280;28;20204;-79
2023/06/21 05:09:58;;;;;;;8.57;7.13;;;21.00;99.90;;;;;;4989193;28;20918;-79
2023/06/21 05:12:25;;;;;;;9.20;7.30;;;20.90;99.90;;;;;;4989891;28;20225;-79
2023/06/21 05:14:53;;;;;;;9.27;7.53;;;21.00;99.90;;;;;;4988865;28;20209;-79
2023/06/21 05:17:20;;;;;;;9.65;7.13;;;20.90;99.90;;;;;;4990063;28;20204;-79
2023/06/21 05:19:48;;;;;;;8.52;6.45;;;20.90;99.90;;;;;;4988862;28;20228;-79
2023/06/21 05:22:16;;;;;;;7.88;6.97;;;21.40;99.90;;;;;;4984421;28;20201;-79
2023/06/21 05:24:43;;;;;;;10.73;7.45;;;21.40;99.90;;;;;;4970718;28;20204;-79
2023/06/21 05:27:12;;;;;;;9.20;6.90;;;21.40;99.90;;;;;;4987636;28;20705;-79
2023/06/21 05:29:40;;;;;;;8.35;6.93;;;21.40;99.90;;;;;;4990236;28;20224;-79
2023/06/21 05:32:08;;;;;;;9.65;7.28;;;21.20;99.90;;;;;;4988906;28;20200;-79
2023/06/21 05:34:35;;;;;;;8.18;7.38;;;21.20;99.90;;;;;;4989511;28;20212;-80
2023/06/21 05:37:03;;;;;;;7.15;6.45;;;21.10;99.90;;;;;;4990170;28;20212;-80
2023/06/21 05:39:30;;;;;;;10.55;8.23;;;21.60;99.90;;;;;;4989531;28;20231;-79
2023/06/21 05:41:57;;;;;;;8.70;7.65;;;21.40;99.90;;;;;;4987625;28;20197;-80
2023/06/21 05:44:26;;;;;;;9.57;8.57;;;21.40;99.90;;;;;;4990225;28;20248;-80
2023/06/21 05:46:54;;;;;;;9.18;7.97;;;21.10;99.90;;;;;;4986166;28;20204;-79
2023/06/21 05:49:23;;;;;;;9.18;7.95;;;21.20;99.90;;;;;;4988759;28;20575;-81
2023/06/21 05:51:50;;;;;;;9.50;8.32;;;21.30;99.90;;;;;;4988466;28;20211;-79
2023/06/21 05:54:18;;;;;;;9.25;8.35;;;21.40;99.90;;;;;;4988792;28;20555;-80
2023/06/21 05:56:45;;;;;;;9.68;8.60;;;21.30;99.90;;;;;;4987617;28;20204;-79
2023/06/21 05:59:13;;;;;;;9.30;8.40;;;21.40;99.90;;;;;;4987146;28;20204;-79
2023/06/21 06:01:42;;;;;;;8.70;7.40;;;21.50;99.90;;;;;;4984087;28;20215;-78
2023/06/21 06:04:09;;;;;;;9.38;8.25;;;21.80;99.90;;;;;;4988925;28;20224;-78
2023/06/21 06:06:38;;;;;;;9.48;8.48;;;21.80;99.90;;;;;;4989400;28;20574;-78
2023/06/21 06:09:06;;;;;;;8.82;7.93;;;21.80;99.90;;;;;;4988904;28;20205;-78
2023/06/21 06:11:33;;;;;;;8.88;7.88;;;21.60;99.90;;;;;;4987462;28;20224;-78
2023/06/21 06:14:01;;;;;;;9.10;8.20;;;21.90;99.90;;;;;;4985052;28;20196;-78
2023/06/21 06:16:28;;;;;;;11.02;7.70;;;22.00;99.90;;;;;;4977435;28;20208;-78
2023/06/21 06:18:59;;;;;;;8.95;8.05;;;21.90;99.90;;;;;;4986977;28;20199;-78
2023/06/21 06:21:26;;;;;;;9.80;8.77;;;21.80;99.90;;;;;;4985769;28;20231;-78
2023/06/21 06:23:55;;;;;;;11.20;8.52;;;21.70;99.90;;;;;;4985777;28;20222;-78
2023/06/21 06:26:24;;;;;;;9.65;8.68;;;21.90;99.90;;;;;;4991446;28;20200;-78
2023/06/21 06:28:52;;;;;;;10.88;9.77;;;21.90;99.90;;;;;;4987056;28;20204;-78
2023/06/21 06:31:20;;;;;;;10.07;8.70;;;21.80;99.90;;;;;;5001087;28;20232;-78
2023/06/21 06:33:48;;;;;;;8.88;7.93;;;21.90;99.90;;;;;;4987534;28;20204;-78
2023/06/21 06:36:17;;;;;;;9.45;8.48;;;22.10;99.90;;;;;;4987015;28;20614;-79
2023/06/21 06:38:46;;;;;;;10.63;9.18;;;22.20;99.90;;;;;;4983073;28;20212;-79
2023/06/21 06:41:14;;;;;;;8.93;8.02;;;22.20;99.90;;;;;;4989254;28;20709;-79
2023/06/21 06:43:41;;;;;;;10.05;8.48;;;22.10;99.90;;;;;;4988448;28;20224;-79
2023/06/21 06:46:09;;;;;;;9.75;8.57;;;22.10;99.90;;;;;;4988467;28;20207;-79
2023/06/21 06:48:36;;;;;;;9.82;8.82;;;22.40;99.90;;;;;;4986707;28;20662;-79
2023/06/21 06:51:05;;;;;;;11.82;9.52;;;22.50;99.90;;;;;;5002894;28;20220;-78
2023/06/21 06:53:34;;;;;;;10.20;9.23;;;22.60;99.90;;;;;;4985538;28;20188;-79
2023/06/21 06:56:01;;;;;;;9.32;8.43;;;22.70;99.90;;;;;;5001139;28;20204;-78
2023/06/21 06:58:29;;;;;;;10.25;9.35;;;22.70;99.90;;;;;;4987776;28;20196;-78
2023/06/21 07:00:56;;;;;;;9.52;8.57;;;22.60;99.90;;;;;;4986617;28;20231;-78
2023/06/21 07:03:24;;;;;;;9.25;8.35;;;22.60;99.90;;;;;;4983923;28;20414;-78
2023/06/21 07:05:51;;;;;;;12.30;10.18;;;22.90;99.90;;;;;;4990791;28;20212;-78
2023/06/21 07:08:20;;;;;;;12.10;9.75;;;22.80;99.90;;;;;;4984273;28;20201;-78
2023/06/21 07:10:49;;;;;;;10.02;9.13;;;22.80;99.90;;;;;;4985413;28;20232;-78
2023/06/21 07:13:17;;;;;;;11.07;10.02;;;22.80;99.90;;;;;;4986399;28;20204;-78
2023/06/21 07:15:45;;;;;;;10.63;9.73;;;22.60;99.90;;;;;;4979701;28;20208;-78
2023/06/21 07:18:13;;;;;;;9.20;8.40;;;22.90;99.90;;;;;;4988182;28;20200;-78
2023/06/21 07:20:41;;;;;;;9.75;8.73;;;23.00;99.90;;;;;;4981624;28;20232;-78
2023/06/21 07:23:12;;;;;;;9.75;8.93;;;23.10;99.90;;;;;;4985410;28;20662;-78
2023/06/21 07:25:39;;;;;;;9.88;8.80;;;23.30;99.90;;;;;;4987104;28;20231;-78
2023/06/21 07:28:09;;;;;;;9.90;8.98;;;23.30;99.90;;;;;;4985888;28;20584;-78
2023/06/21 07:30:37;;;;;;;9.73;8.57;;;23.10;99.90;;;;;;4984985;28;20216;-78
2023/06/21 07:33:06;;;;;;;10.77;9.73;;;23.10;99.90;;;;;;4984837;28;20207;-78
2023/06/21 07:35:33;;;;;;;9.90;9.00;;;23.00;99.90;;;;;;4987213;28;20196;-78
2023/06/21 07:38:02;;;;;;;9.77;8.82;;;23.00;99.90;;;;;;4986522;28;20200;-78
2023/06/21 07:40:30;;;;;;;10.95;9.85;;;23.00;99.90;;;;;;4985067;28;20227;-78
2023/06/21 07:42:57;;;;;;;10.50;9.60;;;23.00;99.90;;;;;;4985641;28;20215;-78
2023/06/21 07:45:26;;;;;;;10.80;9.75;;;23.10;99.90;;;;;;4986621;28;20717;-78
2023/06/21 07:47:54;;;;;;;9.82;8.82;;;23.10;99.90;;;;;;4985666;28;20200;-80
2023/06/21 07:50:23;;;;;;;11.93;9.77;;;23.30;99.90;;;;;;4986727;28;20224;-81
2023/06/21 07:52:50;;;;;;;10.07;9.07;;;23.30;99.90;;;;;;4984464;28;20614;-77
2023/06/21 07:55:18;;;;;;;10.68;9.70;;;23.20;99.90;;;;;;4986951;28;20654;-78
2023/06/21 07:57:46;;;;;;;10.38;9.38;;;23.10;99.90;;;;;;4984934;28;20572;-78
2023/06/21 08:00:15;;;;;;;11.13;9.05;;;23.00;99.90;;;;;;4986198;28;20231;-81
2023/06/21 08:02:49;;;;;;;10.18;8.80;;;22.90;99.90;;;;;;4983664;28;20210;-78
2023/06/21 08:05:17;;;;;;;10.45;9.43;;;23.10;99.90;;;;;;4980252;28;20229;-78
2023/06/21 08:07:44;;;;;;;11.55;10.45;;;23.10;99.90;;;;;;4982920;28;20209;-77
2023/06/21 08:10:12;;;;;;;13.75;10.43;;;23.10;99.90;;;;;;4988434;28;20232;-77
2023/06/21 08:12:39;;;;;;;10.75;9.77;;;23.20;99.90;;;;;;4988368;28;20208;-77
2023/06/21 08:15:08;;;;;;;14.02;12.75;;;23.20;99.90;;;;;;4990299;28;20207;-77
2023/06/21 08:17:35;;;;;;;13.02;11.82;;;23.20;99.90;;;;;;4983571;28;20215;-77
2023/06/21 08:20:06;;;;;;;13.07;11.68;;;23.20;99.90;;;;;;4986767;28;20228;-77
2023/06/21 08:22:33;;;;;;;12.48;11.38;;;22.90;99.90;;;;;;4999994;28;20196;-77
2023/06/21 08:25:05;;;;;;;12.80;11.52;;;23.00;99.90;;;;;;4990994;28;20223;-77
2023/06/21 08:27:32;;;;;;;13.80;12.50;;;23.10;99.90;;;;;;4975862;28;20201;-77
2023/06/21 08:29:59;;;;;;;12.73;11.55;;;23.10;99.90;;;;;;4986902;28;20212;-77
2023/06/21 08:32:27;;;;;;;12.52;11.32;;;23.20;99.90;;;;;;4982746;28;20208;-77
2023/06/21 08:34:54;;;;;;;12.10;11.00;;;23.40;99.90;;;;;;4985444;28;20216;-78
2023/06/21 08:37:25;;;;;;;11.48;10.50;;;23.60;99.90;;;;;;4985948;28;20654;-78
2023/06/21 08:39:53;;;;;;;12.13;10.93;;;23.70;99.90;;;;;;4984901;28;20599;-81
2023/06/21 08:42:21;;;;;;;11.70;10.50;;;23.80;99.90;;;;;;4983209;28;20205;-78
2023/06/21 08:44:49;;;;;;;12.02;10.93;;;23.60;99.90;;;;;;4993437;28;20223;-78
2023/06/21 08:47:19;;;;;;;11.73;10.52;;;23.60;99.90;;;;;;4991044;28;20211;-78
2023/06/21 08:49:49;;;;;;;11.80;10.52;;;23.80;99.90;;;;;;4991598;28;20706;-77
2023/06/21 08:52:20;;;;;;;11.45;10.32;;;24.00;99.90;;;;;;4990640;28;20220;-78
2023/06/21 08:54:54;;;;;;;9.85;8.95;;;23.90;99.90;;;;;;4992696;28;20193;-78
2023/06/21 08:57:24;;;;;;;10.20;9.07;;;23.90;99.90;;;;;;4985484;28;20283;-77
2023/06/21 08:59:55;;;;;;;9.63;8.73;;;24.00;99.90;;;;;;4985910;28;20232;-78
2023/06/21 09:02:33;;;;;;;9.63;8.73;;;24.00;99.90;;;;;;5005099;28;20200;-78
2023/06/21 09:05:05;;;;;;;9.68;8.73;;;24.10;99.90;;;;;;4990156;28;20690;-79
2023/06/21 09:07:35;;;;;;;10.77;9.68;;;24.10;99.90;;;;;;4990889;28;20217;-77
2023/06/21 09:10:07;;;;;;;13.40;12.10;;;24.00;99.90;;;;;;4987143;28;20235;-78
2023/06/21 09:12:35;;;;;;;13.95;12.55;;;24.00;99.90;;;;;;4990375;28;20200;-77
2023/06/21 09:15:03;;;;;;;13.45;12.27;;;24.10;99.90;;;;;;4990141;28;20203;-77
2023/06/21 09:17:32;;;;;;;10.48;9.48;;;24.40;99.90;;;;;;4974066;28;20237;-77
2023/06/21 09:19:59;;;;;;;11.68;10.57;;;24.60;99.90;;;;;;4976768;28;20223;-78
2023/06/21 09:22:27;;;;;;;12.75;11.55;;;24.20;99.90;;;;;;5005241;28;20212;-78
2023/06/21 09:24:55;;;;;;;13.88;12.27;;;24.20;99.90;;;;;;4993535;28;20234;-78
2023/06/21 09:27:23;;;;;;;11.57;10.48;;;24.30;99.90;;;;;;4994840;28;20209;-77
2023/06/21 09:29:51;;;;;;;9.73;8.93;;;24.20;99.90;;;;;;4987310;28;20563;-77
2023/06/21 09:32:18;;;;;;;9.82;8.82;;;24.40;99.90;;;;;;4980454;28;20208;-78
2023/06/21 09:34:46;;;;;;;10.02;9.02;;;24.40;99.90;;;;;;4984144;28;20207;-78
2023/06/21 09:37:32;;;;;;;11.02;9.88;;;24.50;99.90;;;;;;4988607;28;20200;-78
2023/06/21 09:39:59;;;;;;;10.57;9.63;;;24.50;99.90;;;;;;4987498;28;20231;-78
2023/06/21 09:42:28;;;;;;;10.02;8.98;;;24.50;99.90;;;;;;4986770;28;20200;-78
2023/06/21 09:44:56;;;;;;;9.45;8.52;;;24.60;99.90;;;;;;4985790;28;20224;-77
2023/06/21 09:47:29;;;;;;;10.45;9.32;;;24.60;99.90;;;;;;4984169;28;20683;-78
2023/06/21 09:49:57;;;;;;;8.35;7.55;;;24.50;99.90;;;;;;4985411;28;20215;-78
2023/06/21 09:52:26;;;;;;;9.38;8.48;;;24.40;99.90;;;;;;4986212;28;20662;-78
2023/06/21 09:54:56;;;;;;;8.88;8.07;;;24.30;99.90;;;;;;4982454;28;20204;-78
2023/06/21 09:57:29;;;;;;;9.65;8.70;;;24.50;99.90;;;;;;4987459;28;20193;-78
2023/06/21 09:59:58;;;;;;;10.05;9.20;;;24.60;99.90;;;;;;4983040;28;20234;-78
2023/06/21 10:02:26;;;;;;;10.02;9.13;;;24.70;99.90;;;;;;4983383;28;20197;-78
2023/06/21 10:04:54;;;;;;;9.38;8.57;;;24.70;99.90;;;;;;4990294;28;20208;-78
2023/06/21 10:07:22;;;;;;;8.55;7.85;;;24.80;99.90;;;;;;4993723;28;20665;-78
2023/06/21 10:09:49;;;;;;;8.57;7.75;;;25.00;99.90;;;;;;4986636;28;20236;-78
2023/06/21 10:12:20;;;;;;;8.95;8.15;;;25.10;99.90;;;;;;4989377;28;20200;-78
2023/06/21 10:14:51;;;;;;;8.45;7.72;;;25.20;99.90;;;;;;4990267;28;20215;-78
2023/06/21 10:17:19;;;;;;;9.13;8.15;;;25.20;99.90;;;;;;4986040;28;20405;-78
2023/06/21 10:19:47;;;;;;;8.88;8.07;;;25.10;99.90;;;;;;4988537;28;20347;-78
2023/06/21 10:22:20;;;;;;;10.00;9.07;;;25.20;99.90;;;;;;4989098;28;20205;-78
2023/06/21 10:24:51;;;;;;;8.43;7.72;;;25.20;99.90;;;;;;4988796;28;20207;-78
2023/06/21 10:27:20;;;;;;;8.98;8.18;;;25.20;99.90;;;;;;4988501;28;20211;-78
2023/06/21 10:29:56;;;;;;;8.98;8.27;;;24.90;99.90;;;;;;4984965;28;20225;-79
2023/06/21 10:32:24;;;;;;;9.75;8.77;;;24.90;99.90;;;;;;4981939;28;20196;-78
2023/06/21 10:34:57;;;;;;;9.40;8.60;;;25.00;99.90;;;;;;4986188;28;20196;-79
2023/06/21 10:37:48;;;;;;;9.63;8.82;;;25.00;99.90;;;;;;4988232;28;20207;-78
2023/06/21 10:40:16;;;;;;;8.70;7.93;;;25.30;99.90;;;;;;5001480;28;20225;-79
2023/06/21 10:42:44;;;;;;;7.85;7.18;;;25.60;99.90;;;;;;4988580;28;20222;-79
2023/06/21 10:45:14;;;;;;;7.90;7.18;;;25.60;99.90;;;;;;4986739;28;20200;-79
2023/06/21 10:47:42;;;;;;;7.40;6.63;;;25.60;99.90;;;;;;5005060;28;20550;-79
2023/06/21 10:50:11;;;;;;;7.28;6.40;;;25.60;99.90;;;;;;4985725;28;20220;-79
2023/06/21 10:52:40;;;;;;;7.53;6.93;;;25.60;99.90;;;;;;4988706;28;20189;-79
2023/06/21 10:55:15;;;;;;;7.25;6.65;;;25.80;99.90;;;;;;4988897;28;20200;-79
2023/06/21 10:57:44;;;;;;;8.88;7.82;;;25.90;99.90;;;;;;4990239;28;20203;-78
2023/06/21 11:00:14;;;;;;;7.97;7.28;;;26.10;99.90;;;;;;5002279;28;20237;-78
2023/06/21 11:02:42;;;;;;;8.50;7.68;;;26.10;99.90;;;;;;4985701;28;20207;-78
2023/06/21 11:05:13;;;;;;;7.95;7.25;;;26.20;99.90;;;;;;4982286;28;20212;-78
2023/06/21 11:07:59;;;;;;;6.88;6.32;;;25.90;99.90;;;;;;4986110;28;20666;-78
2023/06/21 11:10:32;;;;;;;8.63;7.82;;;25.70;99.90;;;;;;4987893;28;20732;-78
2023/06/21 11:13:15;;;;;;;8.02;7.32;;;25.50;99.90;;;;;;4986621;28;20204;-79
2023/06/21 11:15:46;;;;;;;8.48;7.65;;;25.50;99.90;;;;;;4985143;28;20531;-79
2023/06/21 11:18:18;;;;;;;8.52;7.32;;;25.50;99.90;;;;;;4983576;28;20203;-79
2023/06/21 11:20:48;;;;;;;8.60;7.70;;;25.30;99.90;;;;;;4989637;28;20224;-79
2023/06/21 11:23:18;;;;;;;9.07;8.18;;;25.50;99.90;;;;;;4990991;28;20189;-78
2023/06/21 11:25:53;;;;;;;7.78;7.05;;;25.60;99.90;;;;;;4990134;28;20216;-78
2023/06/21 11:28:33;;;;;;;6.50;6.00;;;25.80;99.90;;;;;;4990236;28;20210;-78
2023/06/21 11:31:11;;;;;;;4.07;3.70;;;25.90;99.90;;;;;;4989741;28;20693;-78
2023/06/21 11:33:51;;;;;;;6.15;5.53;;;26.10;98.90;;;;;;4989704;28;20294;-78
2023/06/21 11:36:21;;;;;;;7.55;6.38;;;26.20;99.90;;;;;;4983303;28;20207;-78
2023/06/21 11:38:59;;;;;;;8.55;6.80;;;26.40;99.90;;;;;;4990610;28;20204;-78
2023/06/21 11:41:57;;;;;;;7.07;6.07;;;26.30;99.90;;;;;;4989546;28;20243;-79
2023/06/21 11:44:28;;;;;;;6.38;5.53;;;26.60;99.90;;;;;;4991649;28;20548;-79
2023/06/21 11:47:28;;;;;;;6.00;5.43;;;27.00;99.90;;;;;;5013059;28;20301;-78
2023/06/21 11:50:01;;;;;;;6.63;6.13;;;27.10;99.60;;;;;;4987387;28;20223;-79
2023/06/21 11:52:34;;;;;;;6.97;6.18;;;26.90;98.80;;;;;;4994308;28;20185;-79
2023/06/21 11:55:32;;;;;;;6.75;6.15;;;26.70;99.10;;;;;;4993904;28;20678;-79
2023/06/21 11:58:00;;;;;;;9.30;8.40;;;26.80;98.90;;;;;;4992658;28;20203;-79
2023/06/21 12:00:29;;;;;;;8.73;8.00;;;26.70;99.90;;;;;;4990048;28;20225;-79
2023/06/21 12:02:56;;;;;;;8.05;7.35;;;26.70;99.90;;;;;;4992543;28;20200;-79
2023/06/21 12:05:23;;;;;;;8.50;7.80;;;26.90;99.90;;;;;;4991660;28;20208;-79
2023/06/21 12:07:51;;;;;;;7.68;7.07;;;27.10;99.60;;;;;;5001342;28;20217;-79
2023/06/21 12:10:19;;;;;;;6.18;5.65;;;26.80;99.30;;;;;;4995590;28;20228;-79
2023/06/21 12:12:46;;;;;;;5.60;5.18;;;26.60;97.50;;;;;;4996469;28;20199;-79
2023/06/21 12:15:14;;;;;;;5.70;5.20;;;26.80;97.30;;;;;;4997611;28;20199;-79
2023/06/21 12:17:43;;;;;;;5.70;4.40;;;26.80;95.80;;;;;;4996469;28;20196;-79
2023/06/21 12:20:11;;;;;;;5.18;4.60;;;26.90;95.10;;;;;;4996424;28;20556;-79
2023/06/21 12:22:39;;;;;;;5.70;5.20;;;26.90;96.00;;;;;;5012236;23;20217;-77
2023/06/21 12:25:07;;;;;;;6.03;5.53;;;27.00;96.20;;;;;;4995785;28;20196;-78
2023/06/21 12:27:34;;;;;;;5.93;5.43;;;26.90;96.20;;;;;;4993763;28;20700;-77
2023/06/21 12:30:03;;;;;;;7.07;6.38;;;27.00;96.90;;;;;;4994263;28;20203;-78
2023/06/21 12:32:35;;;;;;;6.85;6.15;;;26.80;95.90;;;;;;4994956;28;20220;-78
2023/06/21 12:35:04;;;;;;;6.22;5.72;;;26.70;96.70;;;;;;4994393;28;20208;-78
2023/06/21 12:37:32;;;;;;;6.78;5.75;;;26.50;97.10;;;;;;4994644;28;20193;-78
2023/06/21 12:40:01;;;;;;;6.88;6.28;;;26.60;96.80;;;;;;4994887;28;20205;-77
2023/06/21 12:42:30;;;;;;;6.45;5.85;;;26.90;96.50;;;;;;4994222;28;20231;-77
2023/06/21 12:44:58;;;;;;;7.05;6.18;;;26.80;96.40;;;;;;4994487;28;20212;-77
2023/06/21 12:47:25;;;;;;;6.45;5.95;;;26.90;96.30;;;;;;4995527;28;20571;-78
2023/06/21 12:49:59;;;;;;;8.55;7.68;;;27.10;96.40;;;;;;4993986;28;20586;-77
2023/06/21 12:52:28;;;;;;;8.25;7.55;;;27.30;96.50;;;;;;4994462;28;20228;-78
2023/06/21 12:54:56;;;;;;;9.45;7.55;;;27.00;96.60;;;;;;4993642;28;20201;-78